Forside
METAR-TAF:

METAR-TAF

Lufthavne :

Niamey, Niger

Breddekreds: 13-29N, længdekreds: 002-10E, højde: 223 m

Aktuelle vejr

Denne rapport blev lavet for 44 minutter siden, kl. 12:00 UTC
Vind 3 kt fra varierende retninger
Temperatur 36°C
Fugtighed 37%
Tryk 1012 hPa
Sigt 10 km eller mere
ingen skyer under 1500m og ingen cumulonimbus

METAR: DRRN 191200Z VRB03KT CAVOK 36/19 Q1012 NOSIG

Tid: 13:44 (12:44 UTC)

Vejrudsigter

Denne rapport blev lavet for 1 time og 44 minutter siden, kl. 11:00 UTC
Foreløbig gælder fra 19 på 12 UTC til 20 på 18 UTC
Vind 8 kt fra sydsydvest
Sigt: 8000 m
Nogle få skyer i en højde af 2000 ft
Sandsynlighed 30% :
Midlertidig
fra 19 på 15 UTC til 19 på 20 UTC
Nogle få skyer i en højde af 2600 ft, Cumulonimbus.
tordenbyger

TAF: DRRN 191100Z 1912/2018 20008KT 8000 FEW020 PROB30 TEMPO 1915/1920 TS FEW026CB

Vejrobservationer og prognoser fra mere end 4000 lufthavne (METAR og TAF).

De gule og røde prikker repræsenterer de meteorologiske stationer.

Flyt musen over at se navnet på stationen.

Så klik over at se vejr observationer og prognoser.

At skifte det kort: Klik på de grønne knapper med et sort kors for at zoome ind; på den grønne knap med en bindestreg for at zoome ud; eller på de grønne pile for tilstødende kort.


METAR-TAF: